Time;durP1;ratioP1;P1;durP2;ratioP2;P2;SDS_P1;SDS_P2;PMS_P1;PMS_P2;Temp;Humidity;BMP_temperature;BMP_pressure;BME280_temperature;BME280_humidity;BME280_pressure;Samples;Min_cycle;Max_cycle;Signal;HPM_P1;HPM_P2
2021/07/04 00:00:29;;;;;;;1999.90;999.90;;;;;;;15.34;100.00;95446.44;5133566;27;20207;-69
2021/07/04 00:02:58;;;;;;;1999.90;999.90;;;;;;;15.39;99.38;95443.63;5133451;27;20262;-69
2021/07/04 00:05:28;;;;;;;1999.90;999.90;;;;;;;15.39;99.60;95441.00;5133258;27;20251;-69
2021/07/04 00:07:55;;;;;;;1999.90;999.90;;;;;;;15.33;99.65;95441.56;5133449;27;20259;-67
2021/07/04 00:10:25;;;;;;;1999.90;999.90;;;;;;;15.22;99.58;95441.19;5133116;27;20715;-69
2021/07/04 00:12:54;;;;;;;1999.90;999.90;;;;;;;15.26;99.84;95444.69;5133186;27;20190;-68
2021/07/04 00:15:23;;;;;;;1999.90;999.90;;;;;;;15.31;100.00;95454.97;5133617;27;20493;-69
2021/07/04 00:17:51;;;;;;;1999.90;999.90;;;;;;;15.39;99.75;95454.09;5133324;27;20251;-68
2021/07/04 00:20:20;;;;;;;1999.90;999.90;;;;;;;15.41;99.73;95446.69;5133074;27;20198;-69
2021/07/04 00:22:48;;;;;;;1999.90;999.90;;;;;;;15.46;98.48;95450.97;5132983;27;20198;-69
2021/07/04 00:25:17;;;;;;;1999.90;999.90;;;;;;;15.55;98.21;95448.25;5133119;27;20198;-69
2021/07/04 00:27:44;;;;;;;1999.90;999.90;;;;;;;15.46;98.04;95446.47;5133208;27;20205;-69
2021/07/04 00:30:15;;;;;;;1999.90;999.90;;;;;;;15.54;97.67;95446.75;5133204;27;20222;-69
2021/07/04 00:32:43;;;;;;;1999.90;999.90;;;;;;;15.42;97.30;95452.69;5132683;27;20562;-70
2021/07/04 00:35:11;;;;;;;1999.90;999.90;;;;;;;15.38;98.20;95441.34;5131835;27;20206;-69
2021/07/04 00:37:38;;;;;;;1999.90;999.90;;;;;;;15.41;98.14;95438.06;5132613;27;20195;-69
2021/07/04 00:40:07;;;;;;;1999.90;999.90;;;;;;;15.45;97.93;95436.31;5132750;27;20202;-69
2021/07/04 00:42:35;;;;;;;1999.90;999.90;;;;;;;15.48;98.01;95420.75;5132478;27;20566;-70
2021/07/04 00:45:02;;;;;;;1999.90;999.90;;;;;;;15.49;98.45;95421.50;5135340;27;20198;-69
2021/07/04 00:47:30;;;;;;;1999.90;999.90;;;;;;;15.43;98.83;95420.19;5132626;27;20194;-69
2021/07/04 00:49:57;;;;;;;1999.90;999.90;;;;;;;15.22;100.00;95428.09;5132346;27;20222;-69
2021/07/04 00:52:25;;;;;;;1999.90;999.90;;;;;;;15.21;100.00;95421.34;5132314;27;20203;-70
2021/07/04 00:54:52;;;;;;;1999.90;999.90;;;;;;;15.20;100.00;95429.50;5132420;27;20949;-69
2021/07/04 00:57:19;;;;;;;1999.90;999.90;;;;;;;15.16;100.00;95424.16;5132182;27;20202;-69
2021/07/04 00:59:46;;;;;;;1999.90;999.90;;;;;;;15.09;100.00;95423.94;5132196;27;20191;-69
2021/07/04 01:02:14;;;;;;;1999.90;999.90;;;;;;;15.13;100.00;95414.34;5132014;27;20254;-69
2021/07/04 01:04:42;;;;;;;1999.90;999.90;;;;;;;15.15;100.00;95409.53;5132568;27;20191;-69
2021/07/04 01:07:09;;;;;;;1999.90;999.90;;;;;;;15.13;100.00;95406.50;5132088;27;20231;-69
2021/07/04 01:09:36;;;;;;;1999.90;999.90;;;;;;;15.10;100.00;95409.75;5132041;27;20222;-69
2021/07/04 01:12:05;;;;;;;1999.90;999.90;;;;;;;15.09;100.00;95422.06;5132327;27;20202;-69
2021/07/04 01:14:32;;;;;;;1999.90;999.90;;;;;;;15.06;100.00;95417.47;5132288;27;20198;-69
2021/07/04 01:17:00;;;;;;;1999.90;999.90;;;;;;;15.08;100.00;95419.78;5131934;27;20201;-69
2021/07/04 01:19:27;;;;;;;1999.90;999.90;;;;;;;15.01;100.00;95416.91;5131865;27;20190;-69
2021/07/04 01:21:58;;;;;;;1999.90;999.90;;;;;;;14.83;100.00;95416.31;5132082;27;20199;-69
2021/07/04 01:24:27;;;;;;;1999.90;999.90;;;;;;;14.82;100.00;95417.41;5132072;27;20186;-69
2021/07/04 01:26:55;;;;;;;1999.90;999.90;;;;;;;14.86;100.00;95418.28;5132111;27;20202;-68
2021/07/04 01:29:22;;;;;;;1999.90;999.90;;;;;;;14.90;100.00;95419.16;5132189;27;20648;-69
2021/07/04 01:31:50;;;;;;;1999.90;999.90;;;;;;;14.90;100.00;95413.16;5132049;27;20719;-69
2021/07/04 01:34:17;;;;;;;1999.90;999.90;;;;;;;14.89;100.00;95416.91;5131850;27;20190;-68
2021/07/04 01:36:44;;;;;;;1999.90;999.90;;;;;;;14.88;100.00;95423.22;5131959;27;20617;-69
2021/07/04 01:39:11;;;;;;;1999.90;999.90;;;;;;;15.01;100.00;95422.16;5131760;27;20190;-69
2021/07/04 01:41:40;;;;;;;1999.90;999.90;;;;;;;15.05;100.00;95418.56;5131783;27;20198;-69
2021/07/04 01:44:07;;;;;;;1999.90;999.90;;;;;;;15.11;99.93;95410.50;5131506;27;20627;-69
2021/07/04 01:46:34;;;;;;;1999.90;999.90;;;;;;;15.02;100.00;95408.75;5131156;27;20285;-69
2021/07/04 01:49:01;;;;;;;1999.90;999.90;;;;;;;15.01;100.00;95401.97;5131238;27;20222;-69
2021/07/04 01:51:28;;;;;;;1999.90;999.90;;;;;;;14.97;100.00;95406.34;5131227;27;20259;-69
2021/07/04 01:53:55;;;;;;;1999.90;999.90;;;;;;;14.99;100.00;95408.63;5131488;27;20229;-68
2021/07/04 01:56:23;;;;;;;1999.90;999.90;;;;;;;14.95;100.00;95399.88;5131146;27;20243;-69
2021/07/04 01:58:52;;;;;;;1999.90;999.90;;;;;;;15.04;99.33;95406.56;5131426;27;20221;-67
2021/07/04 02:01:19;;;;;;;1999.90;999.90;;;;;;;15.02;98.85;95405.38;5129179;27;20191;-68
2021/07/04 02:03:46;;;;;;;1999.90;999.90;;;;;;;15.00;98.67;95410.91;5128175;27;20234;-68
2021/07/04 02:06:13;;;;;;;1999.90;999.90;;;;;;;14.92;99.01;95413.63;5129824;27;20688;-68
2021/07/04 02:08:40;;;;;;;1999.90;999.90;;;;;;;14.92;99.54;95408.38;5130304;27;20213;-67
2021/07/04 02:11:07;;;;;;;1999.90;999.90;;;;;;;14.89;99.46;95414.28;5130720;27;20222;-69
2021/07/04 02:13:35;;;;;;;1999.90;999.90;;;;;;;14.83;99.66;95410.31;5130800;27;20202;-69
2021/07/04 02:16:04;;;;;;;1999.90;999.90;;;;;;;14.82;99.79;95409.56;5131048;27;20262;-69
2021/07/04 02:18:31;;;;;;;1999.90;999.90;;;;;;;14.78;100.00;95407.91;5130871;27;20201;-68
2021/07/04 02:20:58;;;;;;;1999.90;999.90;;;;;;;14.81;100.00;95417.72;5130956;27;20277;-68
2021/07/04 02:23:28;;;;;;;1999.90;999.90;;;;;;;14.75;99.78;95408.53;5130567;27;20195;-69
2021/07/04 02:25:56;;;;;;;1999.90;999.90;;;;;;;14.64;100.00;95410.78;5130649;27;20201;-69
2021/07/04 02:28:27;;;;;;;1999.90;999.90;;;;;;;14.63;100.00;95414.50;5130890;27;20198;-68
2021/07/04 02:30:55;;;;;;;1999.90;999.90;;;;;;;14.55;100.00;95410.84;5130517;27;20229;-69
2021/07/04 02:33:25;;;;;;;1999.90;999.90;;;;;;;14.49;100.00;95412.16;5130342;27;20640;-69
2021/07/04 02:35:54;;;;;;;1999.90;999.90;;;;;;;14.47;100.00;95416.16;5130576;27;20667;-70
2021/07/04 02:38:22;;;;;;;1999.90;999.90;;;;;;;14.47;100.00;95424.00;5131332;27;20196;-68
2021/07/04 02:40:50;;;;;;;1999.90;999.90;;;;;;;14.46;100.00;95418.00;5131803;27;20190;-69
2021/07/04 02:43:20;;;;;;;1999.90;999.90;;;;;;;14.57;100.00;95419.16;5130568;27;20199;-71
2021/07/04 02:45:47;;;;;;;1999.90;999.90;;;;;;;14.58;100.00;95425.91;5130452;27;20260;-68
2021/07/04 02:48:15;;;;;;;1999.90;999.90;;;;;;;14.48;100.00;95421.06;5130587;27;20195;-68
2021/07/04 02:50:45;;;;;;;1999.90;999.90;;;;;;;14.55;100.00;95423.91;5130222;27;20582;-69
2021/07/04 02:53:14;;;;;;;1999.90;999.90;;;;;;;14.47;100.00;95419.53;5130577;27;20228;-69
2021/07/04 02:55:41;;;;;;;1999.90;999.90;;;;;;;14.47;100.00;95426.59;5130013;27;20205;-69
2021/07/04 02:58:08;;;;;;;1999.90;999.90;;;;;;;14.47;100.00;95429.22;5129332;27;20666;-70
2021/07/04 03:00:37;;;;;;;1999.90;999.90;;;;;;;14.47;100.00;95426.59;5130001;27;20255;-69
2021/07/04 03:03:04;;;;;;;1999.90;999.90;;;;;;;14.49;100.00;95427.84;5129665;27;20230;-69
2021/07/04 03:05:31;;;;;;;1999.90;999.90;;;;;;;14.51;100.00;95430.88;5130290;27;20669;-68
2021/07/04 03:07:59;;;;;;;1999.90;999.90;;;;;;;14.47;100.00;95430.00;5129810;27;20194;-68
2021/07/04 03:10:26;;;;;;;1999.90;999.90;;;;;;;14.56;100.00;95425.47;5129896;27;20229;-69
2021/07/04 03:12:55;;;;;;;1999.90;999.90;;;;;;;14.59;100.00;95431.91;5129745;27;20198;-69
2021/07/04 03:15:23;;;;;;;1999.90;999.90;;;;;;;14.56;100.00;95435.16;5129732;27;20194;-69
2021/07/04 03:17:50;;;;;;;1999.90;999.90;;;;;;;14.53;100.00;95426.09;5129819;27;20259;-69
2021/07/04 03:20:17;;;;;;;1999.90;999.90;;;;;;;14.45;100.00;95428.75;5130141;27;20186;-69
2021/07/04 03:22:46;;;;;;;1999.90;999.90;;;;;;;14.42;100.00;95435.41;5129966;27;20259;-69
2021/07/04 03:25:16;;;;;;;1999.90;999.90;;;;;;;14.43;100.00;95439.56;5129807;27;20198;-68
2021/07/04 03:27:44;;;;;;;1999.90;999.90;;;;;;;14.46;100.00;95444.16;5129986;27;20209;-68
2021/07/04 03:30:13;;;;;;;1999.90;999.90;;;;;;;14.57;100.00;95441.91;5129460;27;20290;-68
2021/07/04 03:32:41;;;;;;;1999.90;999.90;;;;;;;14.47;100.00;95439.69;5128379;27;20190;-69
2021/07/04 03:35:11;;;;;;;1999.90;999.90;;;;;;;14.54;100.00;95435.50;5109538;28;20194;-70
2021/07/04 03:37:38;;;;;;;1999.90;999.90;;;;;;;14.68;100.00;95434.47;5109317;28;20667;-69
2021/07/04 03:40:09;;;;;;;1999.90;999.90;;;;;;;14.81;100.00;95438.66;5109368;28;20274;-69
2021/07/04 03:42:38;;;;;;;1999.90;999.90;;;;;;;14.86;100.00;95436.59;5109070;28;20265;-69
2021/07/04 03:45:07;;;;;;;1999.90;999.90;;;;;;;14.97;100.00;95445.59;5109022;28;20195;-69
2021/07/04 03:47:34;;;;;;;1999.90;999.90;;;;;;;15.02;100.00;95442.00;5108912;28;20198;-68
2021/07/04 03:50:01;;;;;;;1999.90;999.90;;;;;;;14.98;100.00;95443.75;5123263;28;20253;-68
2021/07/04 03:52:28;;;;;;;1999.90;999.90;;;;;;;15.03;100.00;95448.78;5110795;27;20342;-68
2021/07/04 03:54:55;;;;;;;1999.90;999.90;;;;;;;15.06;100.00;95455.97;5129692;27;20681;-68
2021/07/04 03:57:23;;;;;;;1999.90;999.90;;;;;;;15.15;100.00;95456.66;5129450;27;20194;-68
2021/07/04 03:59:52;;;;;;;1999.90;999.90;;;;;;;15.05;100.00;95449.19;5129485;27;20194;-67
2021/07/04 04:02:19;;;;;;;1999.90;999.90;;;;;;;15.13;100.00;95460.69;5126620;27;20633;-67
2021/07/04 04:04:46;;;;;;;1999.90;999.90;;;;;;;15.09;100.00;95453.47;5128723;27;20258;-68
2021/07/04 04:07:14;;;;;;;1999.90;999.90;;;;;;;15.13;100.00;95451.00;5129717;27;20263;-70
2021/07/04 04:09:42;;;;;;;1999.90;999.90;;;;;;;15.17;100.00;95457.09;5133146;27;20201;-68
2021/07/04 04:12:11;;;;;;;1999.90;999.90;;;;;;;15.28;100.00;95463.47;5133156;27;20239;-68
2021/07/04 04:14:38;;;;;;;1999.90;999.90;;;;;;;15.35;100.00;95455.06;5132879;27;20194;-69
2021/07/04 04:17:06;;;;;;;1999.90;999.90;;;;;;;15.40;100.00;95458.25;5133130;27;20259;-68
2021/07/04 04:19:34;;;;;;;1999.90;999.90;;;;;;;15.54;100.00;95457.25;5133220;27;20194;-67
2021/07/04 04:22:01;;;;;;;1999.90;999.90;;;;;;;15.57;100.00;95459.97;5132966;27;20255;-69
2021/07/04 04:24:28;;;;;;;1999.90;999.90;;;;;;;15.74;99.12;95456.38;5132519;27;20263;-74
2021/07/04 04:26:55;;;;;;;1999.90;999.90;;;;;;;16.05;98.24;95472.31;5132702;27;20242;-71
2021/07/04 04:29:22;;;;;;;1999.90;999.90;;;;;;;16.18;98.11;95463.38;5127398;27;20203;-72
2021/07/04 04:31:50;;;;;;;1999.90;999.90;;;;;;;16.39;97.84;95465.13;5125440;27;20222;-73
2021/07/04 04:34:19;;;;;;;1999.90;999.90;;;;;;;16.80;96.71;95464.81;5132380;27;20275;-73
2021/07/04 04:36:46;;;;;;;1999.90;999.90;;;;;;;17.43;93.51;95472.88;5130354;27;20194;-67
2021/07/04 04:39:13;;;;;;;1999.90;999.90;;;;;;;17.99;90.65;95465.63;5126414;27;20311;-69
2021/07/04 04:41:40;;;;;;;1999.90;999.90;;;;;;;18.57;87.41;95471.84;5120463;27;20244;-68
2021/07/04 04:44:08;;;;;;;1999.90;999.90;;;;;;;18.95;84.30;95470.34;5128016;27;20202;-68
2021/07/04 04:46:36;;;;;;;1999.90;999.90;;;;;;;19.13;84.77;95466.16;5132357;27;20700;-68
2021/07/04 04:49:03;;;;;;;1999.90;999.90;;;;;;;19.61;82.65;95468.22;5150039;27;20193;-69
2021/07/04 04:51:31;;;;;;;1999.90;999.90;;;;;;;19.88;81.47;95470.88;5136787;27;20261;-69
2021/07/04 04:53:58;;;;;;;1999.90;999.90;;;;;;;19.81;80.94;95468.91;5131748;27;20753;-68
2021/07/04 04:56:26;;;;;;;1999.90;999.90;;;;;;;19.72;81.24;95468.41;5132396;27;20669;-68
2021/07/04 04:58:53;;;;;;;1999.90;999.90;;;;;;;19.69;81.75;95467.22;5132211;27;20205;-68
2021/07/04 05:01:20;;;;;;;1999.90;999.90;;;;;;;19.63;81.72;95465.22;5132386;27;20191;-68
2021/07/04 05:03:47;;;;;;;1999.90;999.90;;;;;;;19.68;82.36;95465.69;5131575;27;20272;-72
2021/07/04 05:06:14;;;;;;;1999.90;999.90;;;;;;;19.89;82.75;95475.81;5132056;27;20242;-68
2021/07/04 05:08:42;;;;;;;1999.90;999.90;;;;;;;19.92;81.75;95469.09;5132264;27;20237;-68
2021/07/04 05:11:10;;;;;;;1999.90;999.90;;;;;;;20.05;81.07;95473.81;5131631;27;20366;-68
2021/07/04 05:13:37;;;;;;;1999.90;999.90;;;;;;;20.18;79.98;95469.84;5132163;27;20204;-68
2021/07/04 05:16:05;;;;;;;1999.90;999.90;;;;;;;20.27;80.51;95480.19;5131817;27;20199;-69
2021/07/04 05:18:32;;;;;;;1999.90;999.90;;;;;;;20.41;78.84;95480.41;5131171;27;20758;-69
2021/07/04 05:20:59;;;;;;;1999.90;999.90;;;;;;;20.36;79.18;95477.31;5131040;27;20259;-69
2021/07/04 05:23:27;;;;;;;1999.90;999.90;;;;;;;20.51;79.73;95484.31;5131546;27;20202;-68
2021/07/04 05:25:58;;;;;;;1999.90;999.90;;;;;;;20.59;79.30;95475.38;5131938;27;20198;-67
2021/07/04 05:28:25;;;;;;;1999.90;999.90;;;;;;;20.72;78.55;95478.56;5131534;27;20235;-68
2021/07/04 05:30:53;;;;;;;1999.90;999.90;;;;;;;20.81;79.10;95473.78;5131358;27;20282;-67
2021/07/04 05:33:20;;;;;;;1999.90;999.90;;;;;;;21.02;78.22;95481.97;5131040;27;20674;-68
2021/07/04 05:35:47;;;;;;;1999.90;999.90;;;;;;;21.10;77.30;95472.97;5131297;27;20209;-72
2021/07/04 05:38:18;;;;;;;1999.90;999.90;;;;;;;20.98;77.46;95481.13;5131296;27;20203;-68
2021/07/04 05:40:46;;;;;;;1999.90;999.90;;;;;;;21.22;76.88;95479.94;5131274;27;20615;-68
2021/07/04 05:43:15;;;;;;;1999.90;999.90;;;;;;;21.33;77.44;95480.81;5131260;27;20194;-68
2021/07/04 05:45:42;;;;;;;1999.90;999.90;;;;;;;21.45;78.62;95481.31;5131471;27;20259;-68
2021/07/04 05:48:09;;;;;;;1999.90;999.90;;;;;;;21.48;75.54;95477.94;5130646;27;20274;-68
2021/07/04 05:50:36;;;;;;;1999.90;999.90;;;;;;;21.68;75.85;95473.22;5130873;27;20313;-68
2021/07/04 05:53:04;;;;;;;1999.90;999.90;;;;;;;21.99;75.06;95484.47;5130750;27;20202;-68
2021/07/04 05:55:31;;;;;;;1999.90;999.90;;;;;;;21.95;74.54;95481.81;5131234;27;20199;-67
2021/07/04 05:57:58;;;;;;;1999.90;999.90;;;;;;;21.82;74.09;95483.16;5130925;27;20206;-69
2021/07/04 06:00:26;;;;;;;1999.90;999.90;;;;;;;21.86;74.46;95486.63;5131038;27;20195;-68
2021/07/04 06:02:53;;;;;;;1999.90;999.90;;;;;;;22.19;73.87;95477.81;5130394;27;20346;-68
2021/07/04 06:05:20;;;;;;;1999.90;999.90;;;;;;;22.44;74.03;95481.41;5130601;27;20226;-68
2021/07/04 06:07:47;;;;;;;1999.90;999.90;;;;;;;22.49;72.78;95480.28;5130950;27;20190;-68
2021/07/04 06:10:14;;;;;;;1999.90;999.90;;;;;;;22.71;73.37;95474.00;5120887;27;20346;-68
2021/07/04 06:12:42;;;;;;;1999.90;999.90;;;;;;;22.92;71.34;95478.63;5120103;27;20203;-68
2021/07/04 06:15:10;;;;;;;1999.90;999.90;;;;;;;23.13;71.83;95478.72;5126180;27;20970;-69
2021/07/04 06:17:38;;;;;;;1999.90;999.90;;;;;;;23.27;70.61;95472.69;5125560;27;20190;-68
2021/07/04 06:20:08;;;;;;;1999.90;999.90;;;;;;;23.33;67.15;95473.84;5130113;27;20206;-68
2021/07/04 06:22:36;;;;;;;1999.90;999.90;;;;;;;23.13;67.86;95474.19;5130302;27;20199;-68
2021/07/04 06:25:03;;;;;;;1999.90;999.90;;;;;;;23.06;67.35;95474.16;5130253;27;20757;-68
2021/07/04 06:27:31;;;;;;;1999.90;999.90;;;;;;;23.32;68.93;95467.03;5130610;27;20639;-68
2021/07/04 06:29:58;;;;;;;1999.90;999.90;;;;;;;23.79;68.75;95463.34;5130548;27;20658;-67
2021/07/04 06:32:25;;;;;;;1999.90;999.90;;;;;;;23.96;65.50;95457.31;5129581;27;20222;-67
2021/07/04 06:34:53;;;;;;;1999.90;999.90;;;;;;;24.22;65.34;95464.88;5129896;27;20206;-66
2021/07/04 06:37:20;;;;;;;1999.90;999.90;;;;;;;24.25;64.74;95452.75;5130433;27;20558;-68
2021/07/04 06:39:47;;;;;;;1999.90;999.90;;;;;;;24.37;64.68;95452.34;5129946;27;20245;-67
2021/07/04 06:42:14;;;;;;;1999.90;999.90;;;;;;;24.30;63.28;95450.47;5130001;27;20226;-71
2021/07/04 06:44:41;;;;;;;1999.90;999.90;;;;;;;23.90;64.02;95442.88;5130250;27;20202;-72
2021/07/04 06:47:08;;;;;;;1999.90;999.90;;;;;;;24.11;63.68;95442.84;5132115;27;20198;-69
2021/07/04 06:49:36;;;;;;;1999.90;999.90;;;;;;;24.08;62.97;95440.22;5130174;27;20194;-68
2021/07/04 06:52:05;;;;;;;1999.90;999.90;;;;;;;23.77;62.79;95444.38;5130322;27;20275;-72
2021/07/04 06:54:32;;;;;;;1999.90;999.90;;;;;;;23.74;64.01;95445.91;5129781;27;20205;-70
2021/07/04 06:57:26;;;;;;;1999.90;999.90;;;;;;;23.99;64.27;95440.59;5129410;27;20686;-68
2021/07/04 06:59:47;;;;;;;1999.90;999.90;;;;;;;23.80;63.70;95444.41;5129804;27;20217;-68
2021/07/04 07:02:14;;;;;;;1999.90;999.90;;;;;;;24.34;64.19;95435.28;5120163;27;20198;-67
2021/07/04 07:04:41;;;;;;;1999.90;999.90;;;;;;;24.26;60.77;95444.38;5126161;27;20262;-69
2021/07/04 07:07:10;;;;;;;1999.90;999.90;;;;;;;24.50;61.58;95431.44;5113302;27;20206;-69
2021/07/04 07:09:37;;;;;;;1999.90;999.90;;;;;;;24.65;62.17;95433.69;5127756;27;20702;-68
2021/07/04 07:12:05;;;;;;;1999.90;999.90;;;;;;;24.42;62.68;95431.47;5129705;27;20666;-68
2021/07/04 07:14:32;;;;;;;1999.90;999.90;;;;;;;24.88;59.84;95433.25;5129284;27;20202;-68
2021/07/04 07:16:59;;;;;;;1999.90;999.90;;;;;;;24.64;61.91;95428.75;5129804;27;20210;-67
2021/07/04 07:19:26;;;;;;;1999.90;999.90;;;;;;;24.91;59.96;95434.38;5128539;27;20262;-67
2021/07/04 07:21:53;;;;;;;1999.90;999.90;;;;;;;25.27;60.44;95422.41;5129330;27;20919;-69
2021/07/04 07:24:21;;;;;;;1999.90;999.90;;;;;;;25.46;59.65;95416.56;5129898;27;20258;-69
2021/07/04 07:26:48;;;;;;;1999.90;999.90;;;;;;;25.39;58.16;95413.97;5123343;27;20247;-68
2021/07/04 07:29:15;;;;;;;1999.90;999.90;;;;;;;25.26;57.94;95413.66;5129226;27;20255;-68
2021/07/04 07:31:42;;;;;;;1999.90;999.90;;;;;;;25.41;55.78;95413.56;5129182;27;20279;-68
2021/07/04 07:34:10;;;;;;;1999.90;999.90;;;;;;;25.35;56.37;95413.25;5128643;27;20202;-67
2021/07/04 07:36:37;;;;;;;1999.90;999.90;;;;;;;25.26;54.83;95408.34;5129485;27;20194;-67
2021/07/04 07:39:04;;;;;;;1999.90;999.90;;;;;;;25.32;56.20;95405.25;5128873;28;20954;-68
2021/07/04 07:41:33;;;;;;;1999.90;999.90;;;;;;;25.63;56.52;95404.31;5129229;27;20221;-68
2021/07/04 07:44:00;;;;;;;1999.90;999.90;;;;;;;25.86;53.52;95401.84;5132144;27;20190;-66
2021/07/04 07:46:28;;;;;;;1999.90;999.90;;;;;;;25.72;53.06;95404.63;5133269;27;20206;-68
2021/07/04 07:48:54;;;;;;;1999.90;999.90;;;;;;;25.79;54.34;95398.50;5130884;27;20663;-67
2021/07/04 07:51:22;;;;;;;1999.90;999.90;;;;;;;25.94;52.74;95391.91;5121523;27;20710;-68
2021/07/04 07:53:49;;;;;;;1999.90;999.90;;;;;;;26.05;54.11;95392.56;5133387;27;20214;-68
2021/07/04 07:56:16;;;;;;;1999.90;999.90;;;;;;;26.24;52.72;95389.34;5133365;27;20491;-67
2021/07/04 07:58:45;;;;;;;1999.90;999.90;;;;;;;26.26;51.79;95387.03;5133473;27;20234;-68
2021/07/04 08:01:14;;;;;;;1999.90;999.90;;;;;;;25.80;52.73;95392.03;5137840;27;20313;-69
2021/07/04 08:03:41;;;;;;;1999.90;999.90;;;;;;;25.86;51.76;95391.19;5147952;27;21049;-69
2021/07/04 08:06:08;;;;;;;1999.90;999.90;;;;;;;25.86;51.22;95390.44;5146414;27;20201;-68
2021/07/04 08:08:35;;;;;;;1999.90;999.90;;;;;;;26.19;51.63;95389.75;5153873;27;20256;-68
2021/07/04 08:11:02;;;;;;;1999.90;999.90;;;;;;;26.35;51.74;95381.25;5151796;27;20218;-68
2021/07/04 08:13:29;;;;;;;1999.90;999.90;;;;;;;26.34;48.42;95383.16;5140030;27;20194;-69
2021/07/04 08:15:58;;;;;;;1999.90;999.90;;;;;;;26.07;48.78;95382.25;5153236;27;20193;-68
2021/07/04 08:18:25;;;;;;;1999.90;999.90;;;;;;;26.07;48.71;95376.94;5147910;27;20221;-69
2021/07/04 08:20:52;;;;;;;1999.90;999.90;;;;;;;26.38;50.33;95378.53;5150433;27;20189;-68
2021/07/04 08:23:20;;;;;;;1999.90;999.90;;;;;;;26.66;50.30;95377.44;5153578;27;20238;-69
2021/07/04 08:25:47;;;;;;;1999.90;999.90;;;;;;;26.70;48.52;95378.16;5152958;27;20194;-68
2021/07/04 08:28:17;;;;;;;1999.90;999.90;;;;;;;26.77;48.35;95375.41;5153413;27;20201;-68
2021/07/04 08:30:44;;;;;;;1999.90;999.90;;;;;;;27.13;49.28;95373.06;5153767;27;20280;-69
2021/07/04 08:33:12;;;;;;;1999.90;999.90;;;;;;;26.88;46.21;95367.31;5150175;27;20886;-69
2021/07/04 08:35:39;;;;;;;1999.90;999.90;;;;;;;26.76;46.33;95375.81;5132164;27;20285;-68
2021/07/04 08:38:06;;;;;;;1999.90;999.90;;;;;;;26.87;49.00;95371.88;5151097;27;20236;-69
2021/07/04 08:40:34;;;;;;;1999.90;999.90;;;;;;;26.42;48.23;95368.59;5153213;27;20254;-69
2021/07/04 08:43:01;;;;;;;1999.90;999.90;;;;;;;26.22;46.54;95370.34;5138409;27;20734;-68
2021/07/04 08:45:28;;;;;;;1999.90;999.90;;;;;;;26.00;48.94;95369.75;5153038;27;20201;-68
2021/07/04 08:47:55;;;;;;;1999.90;999.90;;;;;;;26.09;46.94;95370.06;5147227;27;20250;-68
2021/07/04 08:50:24;;;;;;;1999.90;999.90;;;;;;;25.71;48.48;95369.25;5138864;27;20246;-68
2021/07/04 08:52:51;;;;;;;1999.90;999.90;;;;;;;25.82;47.77;95363.09;5148454;27;20222;-68
2021/07/04 08:55:18;;;;;;;1999.90;999.90;;;;;;;25.59;47.92;95359.09;5151374;27;20198;-68
2021/07/04 08:57:45;;;;;;;1999.90;999.90;;;;;;;25.38;48.13;95361.91;5152641;27;20198;-68
2021/07/04 09:00:18;;;;;;;1999.90;999.90;;;;;;;25.24;49.57;95357.44;5152794;27;20198;-68
2021/07/04 09:02:45;;;;;;;1999.90;999.90;;;;;;;25.38;48.99;95361.91;5152751;27;20279;-67
2021/07/04 09:05:14;;;;;;;1999.90;999.90;;;;;;;25.43;48.08;95360.72;5132188;27;20206;-68
2021/07/04 09:07:43;;;;;;;1999.90;999.90;;;;;;;25.50;47.68;95353.44;5131655;27;20207;-68
2021/07/04 09:10:13;;;;;;;1999.90;999.90;;;;;;;25.63;48.58;95357.16;5131700;27;20278;-67
2021/07/04 09:12:42;;;;;;;1999.90;999.90;;;;;;;25.59;47.01;95359.09;5131866;27;20230;-67
2021/07/04 09:15:12;;;;;;;1999.90;999.90;;;;;;;26.01;46.22;95354.53;5131768;27;20270;-68
2021/07/04 09:17:41;;;;;;;1999.90;999.90;;;;;;;26.11;46.32;95354.44;5131878;27;20229;-67
2021/07/04 09:20:12;;;;;;;1999.90;999.90;;;;;;;26.28;46.16;95363.44;5131193;27;20205;-67
2021/07/04 09:22:40;;;;;;;1999.90;999.90;;;;;;;26.30;45.93;95358.44;5131905;27;20934;-68
2021/07/04 09:25:12;;;;;;;1999.90;999.90;;;;;;;26.35;44.67;95352.66;5131375;27;20202;-68
2021/07/04 09:27:40;;;;;;;1999.90;999.90;;;;;;;26.66;44.25;95356.13;5132002;27;20247;-68
2021/07/04 09:30:11;;;;;;;1999.90;999.90;;;;;;;26.93;45.36;95343.59;5131482;27;20234;-68
2021/07/04 09:32:38;;;;;;;1999.90;999.90;;;;;;;27.31;45.59;95340.78;5131132;27;20646;-68
2021/07/04 09:35:09;;;;;;;1999.90;999.90;;;;;;;27.18;42.77;95343.25;5131316;27;20197;-68
2021/07/04 09:37:38;;;;;;;1999.90;999.90;;;;;;;27.32;43.67;95335.03;5131367;27;20191;-67
2021/07/04 09:40:20;;;;;;;1999.90;999.90;;;;;;;27.12;43.78;95342.19;5131648;27;20247;-67
2021/07/04 09:42:59;;;;;;;1999.90;999.90;;;;;;;27.17;44.09;95333.75;5131502;27;20551;-68
2021/07/04 09:45:28;;;;;;;1999.90;999.90;;;;;;;27.15;44.67;95335.31;5131477;27;20183;-68
2021/07/04 09:47:58;;;;;;;1999.90;999.90;;;;;;;27.45;43.39;95335.19;5131378;27;20238;-68
2021/07/04 09:50:26;;;;;;;1999.90;999.90;;;;;;;27.66;40.65;95334.13;5130688;27;20190;-69
2021/07/04 09:53:00;;;;;;;1999.90;999.90;;;;;;;27.40;40.88;95339.09;5130676;27;20279;-68
2021/07/04 09:55:31;;;;;;;1999.90;999.90;;;;;;;27.48;39.88;95334.41;5131212;27;20181;-69
2021/07/04 09:58:00;;;;;;;1999.90;999.90;;;;;;;27.31;41.71;95320.19;5131268;27;20187;-68
2021/07/04 10:00:29;;;;;;;1999.90;999.90;;;;;;;27.22;41.17;95329.84;5131302;27;20615;-69
2021/07/04 10:03:11;;;;;;;1999.90;999.90;;;;;;;27.53;39.23;95325.22;5130768;27;20660;-69
2021/07/04 10:05:39;;;;;;;1999.90;999.90;;;;;;;27.95;39.75;95321.03;5126999;27;20218;-73
2021/07/04 10:08:25;;;;;;;1999.90;999.90;;;;;;;27.65;37.44;95321.94;5110510;28;20256;-68
2021/07/04 10:10:56;;;;;;;1999.90;999.90;;;;;;;27.45;38.54;95318.47;5110357;28;20191;-74
2021/07/04 10:13:23;;;;;;;1999.90;999.90;;;;;;;27.47;38.28;95311.53;5109987;28;20211;-76
2021/07/04 10:15:51;;;;;;;1999.90;999.90;;;;;;;27.64;38.23;95309.78;5110065;28;20191;-67
2021/07/04 10:18:19;;;;;;;1999.90;999.90;;;;;;;28.07;38.77;95307.84;5111199;27;20230;-67
2021/07/04 10:20:47;;;;;;;1999.90;999.90;;;;;;;28.27;37.87;95304.44;5130145;27;20202;-73
2021/07/04 10:23:16;;;;;;;1999.90;999.90;;;;;;;28.34;38.30;95301.63;5130751;27;20674;-68
2021/07/04 10:25:44;;;;;;;1999.90;999.90;;;;;;;28.00;37.74;95302.63;5130163;27;20750;-68
2021/07/04 10:28:14;;;;;;;1999.90;999.90;;;;;;;28.11;37.70;95297.06;5129589;27;20198;-67
2021/07/04 10:30:41;;;;;;;1999.90;999.90;;;;;;;28.02;35.79;95312.91;5130392;27;20230;-66
2021/07/04 10:33:15;;;;;;;1999.90;999.90;;;;;;;28.08;36.46;95287.22;5130380;27;20607;-65
2021/07/04 10:36:13;;;;;;;1999.90;999.90;;;;;;;27.83;36.31;95293.78;5127410;27;20623;-66
2021/07/04 10:38:47;;;;;;;1999.90;999.90;;;;;;;27.94;36.84;95288.25;5117660;27;20251;-67
2021/07/04 10:41:17;;;;;;;1999.90;999.90;;;;;;;27.64;37.96;95299.09;5130645;27;20218;-67
2021/07/04 10:43:55;;;;;;;1999.90;999.90;;;;;;;27.83;37.88;95280.44;5130293;27;20729;-66
2021/07/04 10:46:55;;;;;;;1999.90;999.90;;;;;;;28.22;37.19;95278.94;5130450;27;20251;-67
2021/07/04 10:49:23;;;;;;;1999.90;999.90;;;;;;;28.41;38.16;95285.44;5126005;27;20198;-67
2021/07/04 10:52:01;;;;;;;1999.90;999.90;;;;;;;28.57;36.13;95293.50;5129478;27;20186;-67
2021/07/04 10:54:50;;;;;;;1999.90;999.90;;;;;;;28.21;36.95;95288.13;5126493;27;20701;-66
2021/07/04 10:57:21;;;;;;;1999.90;999.90;;;;;;;28.06;38.44;95284.19;5132079;27;20190;-68